Aviation Digital Data Service (ADDS)

Output produced by TAFs form (0455 UTC 30 June 2016)
found at http://www.aviationweather.gov/adds/tafs/
 
KPOU 292325Z 3000/3024 28005KT P6SM FEW060 
     FM300200 VRB03KT P6SM SKC 
     FM301500 28005KT P6SM FEW060